Página principal
METAR-TAF:

METAR-TAF

Aeroportos :

Aeroporto Internacional de Atenas

Atenas, Grécia

latitude: 37-56N, longitude: 023-56E, altura: 94 m

Observação actual do tempo

O boletim foi feito há 28 minutos, às 14:50 UTC
Vento 14 kt de nor-nordeste
Temperatura 19°C
Humidade 60%
Pressão 1016 hPa
Visibilidade 10 km ou mais
Poucas nuvensa uma altura de 3000 ft

METAR: LGAV 211450Z 03014KT 9999 FEW030 19/11 Q1016 NOSIG

Hora: 18:18 (15:18 UTC)

Previsão

O boletim foi feito há 4 horas e 18 minutos, às 11:00 UTC
Previsão válida de 21 às 12 UTC a 22 às 12 UTC
Vento 12 kt de nor-nordeste
Visibilidade 10 km ou mais
Poucas nuvensa uma altura de 3000 ft
Nuvens dispersasa uma altura de 7000 ft
Temporariamente
de 21 às 18 UTC a 21 às 24 UTC
Nuvens fragmentadasa uma altura de 7000 ft

TAF: LGAV 211100Z 2112/2212 03012KT 9999 FEW030 SCT070 TEMPO 2118/2124 BKN070

Observações e previsões do tempo de mais de 4000 aeroportos (mensagens METAR e TAF).

As estações disponíveis são os pontos amarelos e vermelhos sobre o mapa.

Mova o rato sobre o mapa para ver o nome da estação.

Depois clique no ponto para visualizar as observações e previsões meteorológicas.

Para alterar o mapa : clique nos botões verdes com uma cruz preta para aumentar o zoom; no botão verde com uma pitada de zoom; ou nas setas verdes para mapas adjacentes.


METAR-TAF: